sensor_id;sensor_type;location;lat;lon;timestamp;pressure;altitude;pressure_sealevel;temperature;humidity
63708;BME280;67643;-34.198;22.084;2023-02-28T00:03:29;100405.00;;;18.06;73.90
63708;BME280;67643;-34.198;22.084;2023-02-28T00:05:57;100399.74;;;20.60;64.54
63708;BME280;67643;-34.198;22.084;2023-02-28T00:08:25;100400.80;;;22.07;59.57
63708;BME280;67643;-34.198;22.084;2023-02-28T00:10:53;100397.47;;;22.56;57.85
63708;BME280;67643;-34.198;22.084;2023-02-28T00:13:22;100389.07;;;23.05;55.62
63708;BME280;67643;-34.198;22.084;2023-02-28T00:16:00;100389.24;;;23.53;54.98
63708;BME280;67643;-34.198;22.084;2023-02-28T00:18:29;100382.97;;;23.55;54.33
63708;BME280;67643;-34.198;22.084;2023-02-28T00:20:57;100381.87;;;23.72;53.44
63708;BME280;67643;-34.198;22.084;2023-02-28T00:23:26;100388.28;;;23.80;53.96
63708;BME280;67643;-34.198;22.084;2023-02-28T00:25:54;100387.25;;;23.28;54.41
63708;BME280;67643;-34.198;22.084;2023-02-28T00:28:23;100391.85;;;23.41;54.56
63708;BME280;67643;-34.198;22.084;2023-02-28T00:30:52;100385.70;;;23.75;53.50
63708;BME280;67643;-34.198;22.084;2023-02-28T00:33:20;100383.54;;;24.14;53.05
63708;BME280;67643;-34.198;22.084;2023-02-28T00:35:49;100380.23;;;24.21;52.36
63708;BME280;67643;-34.198;22.084;2023-02-28T00:38:18;100377.67;;;24.18;52.41
63708;BME280;67643;-34.198;22.084;2023-02-28T00:40:47;100376.94;;;23.68;52.84
63708;BME280;67643;-34.198;22.084;2023-02-28T00:43:15;100373.61;;;24.24;52.18
63708;BME280;67643;-34.198;22.084;2023-02-28T00:45:44;100377.07;;;24.22;51.63
63708;BME280;67643;-34.198;22.084;2023-02-28T00:48:12;100371.24;;;24.40;51.65
63708;BME280;67643;-34.198;22.084;2023-02-28T00:50:41;100368.41;;;24.01;51.91
63708;BME280;67643;-34.198;22.084;2023-02-28T00:53:10;100365.20;;;23.83;52.37
63708;BME280;67643;-34.198;22.084;2023-02-28T00:55:39;100361.43;;;24.19;52.17
63708;BME280;67643;-34.198;22.084;2023-02-28T00:58:07;100357.91;;;24.21;52.20
63708;BME280;67643;-34.198;22.084;2023-02-28T01:00:35;100356.83;;;24.19;51.69
63708;BME280;67643;-34.198;22.084;2023-02-28T01:03:04;100349.95;;;24.05;52.45
63708;BME280;67643;-34.198;22.084;2023-02-28T01:05:32;100346.10;;;23.89;52.27
63708;BME280;67643;-34.198;22.084;2023-02-28T01:08:00;100343.67;;;23.83;53.45
63708;BME280;67643;-34.198;22.084;2023-02-28T01:10:29;100343.99;;;23.60;53.98
63708;BME280;67643;-34.198;22.084;2023-02-28T01:12:57;100342.44;;;23.82;53.69
63708;BME280;67643;-34.198;22.084;2023-02-28T01:15:26;100340.14;;;23.71;53.39
63708;BME280;67643;-34.198;22.084;2023-02-28T01:17:54;100337.77;;;23.70;52.71
63708;BME280;67643;-34.198;22.084;2023-02-28T01:20:23;100335.05;;;23.94;53.33
63708;BME280;67643;-34.198;22.084;2023-02-28T01:22:51;100336.56;;;23.54;53.65
63708;BME280;67643;-34.198;22.084;2023-02-28T01:25:19;100337.89;;;23.53;53.20
63708;BME280;67643;-34.198;22.084;2023-02-28T01:27:48;100334.67;;;23.91;53.36
63708;BME280;67643;-34.198;22.084;2023-02-28T01:30:16;100335.70;;;23.47;54.38
63708;BME280;67643;-34.198;22.084;2023-02-28T01:32:45;100333.46;;;23.43;54.51
63708;BME280;67643;-34.198;22.084;2023-02-28T01:35:13;100335.43;;;23.75;53.92
63708;BME280;67643;-34.198;22.084;2023-02-28T01:37:42;100333.87;;;23.72;53.84
63708;BME280;67643;-34.198;22.084;2023-02-28T01:40:11;100333.31;;;23.29;54.40
63708;BME280;67643;-34.198;22.084;2023-02-28T01:42:39;100328.77;;;23.33;54.78
63708;BME280;67643;-34.198;22.084;2023-02-28T01:45:21;100326.08;;;23.22;55.04
63708;BME280;67643;-34.198;22.084;2023-02-28T01:47:54;100325.03;;;23.52;54.38
63708;BME280;67643;-34.198;22.084;2023-02-28T01:50:25;100322.37;;;23.31;54.93
63708;BME280;67643;-34.198;22.084;2023-02-28T01:52:57;100320.98;;;23.43;54.59
63708;BME280;67643;-34.198;22.084;2023-02-28T01:55:29;100319.90;;;23.42;54.21
63708;BME280;67643;-34.198;22.084;2023-02-28T01:58:00;100322.77;;;23.51;54.38
63708;BME280;67643;-34.198;22.084;2023-02-28T02:00:30;100317.53;;;23.41;54.61
63708;BME280;67643;-34.198;22.084;2023-02-28T02:03:08;100312.58;;;23.70;53.92
63708;BME280;67643;-34.198;22.084;2023-02-28T02:05:39;100309.17;;;23.38;53.44
63708;BME280;67643;-34.198;22.084;2023-02-28T02:08:11;100308.36;;;23.64;52.91
63708;BME280;67643;-34.198;22.084;2023-02-28T02:10:43;100309.65;;;23.41;53.79
63708;BME280;67643;-34.198;22.084;2023-02-28T02:13:32;100309.57;;;23.67;52.73
63708;BME280;67643;-34.198;22.084;2023-02-28T02:16:11;100311.06;;;23.29;53.52
63708;BME280;67643;-34.198;22.084;2023-02-28T02:18:46;100308.01;;;23.53;52.97
63708;BME280;67643;-34.198;22.084;2023-02-28T02:21:33;100304.26;;;24.33;52.35
63708;BME280;67643;-34.198;22.084;2023-02-28T02:25:23;100304.73;;;24.12;51.71
63708;BME280;67643;-34.198;22.084;2023-02-28T02:28:06;100302.77;;;24.01;52.56
63708;BME280;67643;-34.198;22.084;2023-02-28T02:31:14;100300.67;;;23.83;52.34
63708;BME280;67643;-34.198;22.084;2023-02-28T02:34:04;100300.95;;;24.36;51.82
63708;BME280;67643;-34.198;22.084;2023-02-28T02:36:39;100300.88;;;23.78;52.53
63708;BME280;67643;-34.198;22.084;2023-02-28T02:39:16;100303.11;;;23.60;53.61
63708;BME280;67643;-34.198;22.084;2023-02-28T02:41:49;100303.50;;;23.31;54.54
63708;BME280;67643;-34.198;22.084;2023-02-28T02:44:22;100302.00;;;23.24;54.17
63708;BME280;67643;-34.198;22.084;2023-02-28T02:46:54;100300.71;;;23.60;52.83
63708;BME280;67643;-34.198;22.084;2023-02-28T02:49:28;100296.28;;;23.72;53.03
63708;BME280;67643;-34.198;22.084;2023-02-28T02:52:02;100292.99;;;23.96;52.63
63708;BME280;67643;-34.198;22.084;2023-02-28T02:54:34;100292.82;;;23.15;53.16
63708;BME280;67643;-34.198;22.084;2023-02-28T02:57:06;100289.67;;;23.85;52.20
63708;BME280;67643;-34.198;22.084;2023-02-28T02:59:39;100288.71;;;23.63;52.58
63708;BME280;67643;-34.198;22.084;2023-02-28T03:02:10;100289.14;;;24.01;51.89
63708;BME280;67643;-34.198;22.084;2023-02-28T03:04:43;100284.18;;;24.15;52.00
63708;BME280;67643;-34.198;22.084;2023-02-28T03:07:15;100284.65;;;23.63;52.47
63708;BME280;67643;-34.198;22.084;2023-02-28T03:09:51;100286.47;;;23.64;52.44
63708;BME280;67643;-34.198;22.084;2023-02-28T03:12:19;100289.37;;;23.98;52.26
63708;BME280;67643;-34.198;22.084;2023-02-28T03:14:58;100284.14;;;23.87;52.53
63708;BME280;67643;-34.198;22.084;2023-02-28T03:17:49;100283.18;;;23.29;53.13
63708;BME280;67643;-34.198;22.084;2023-02-28T03:20:33;100282.73;;;23.42;53.32
63708;BME280;67643;-34.198;22.084;2023-02-28T03:23:12;100285.63;;;23.78;53.02
63708;BME280;67643;-34.198;22.084;2023-02-28T03:25:52;100288.79;;;23.71;52.76
63708;BME280;67643;-34.198;22.084;2023-02-28T03:28:31;100291.43;;;23.61;52.89
63708;BME280;67643;-34.198;22.084;2023-02-28T03:31:06;100292.15;;;23.31;52.90
63708;BME280;67643;-34.198;22.084;2023-02-28T03:33:39;100294.78;;;23.83;52.86
63708;BME280;67643;-34.198;22.084;2023-02-28T03:36:12;100292.49;;;23.32;53.34
63708;BME280;67643;-34.198;22.084;2023-02-28T03:38:45;100287.22;;;23.84;52.37
63708;BME280;67643;-34.198;22.084;2023-02-28T03:41:19;100281.39;;;22.80;53.94
63708;BME280;67643;-34.198;22.084;2023-02-28T03:43:53;100280.05;;;23.53;52.46
63708;BME280;67643;-34.198;22.084;2023-02-28T03:46:26;100282.51;;;23.57;52.87
63708;BME280;67643;-34.198;22.084;2023-02-28T03:49:00;100286.81;;;23.58;52.43
63708;BME280;67643;-34.198;22.084;2023-02-28T03:51:31;100289.63;;;23.92;51.72
63708;BME280;67643;-34.198;22.084;2023-02-28T03:54:06;100294.02;;;24.18;51.84
63708;BME280;67643;-34.198;22.084;2023-02-28T03:56:40;100293.86;;;23.60;52.40
63708;BME280;67643;-34.198;22.084;2023-02-28T03:59:14;100295.40;;;23.19;53.26
63708;BME280;67643;-34.198;22.084;2023-02-28T04:01:49;100292.77;;;23.67;52.45
63708;BME280;67643;-34.198;22.084;2023-02-28T04:04:18;100294.20;;;23.20;53.30
63708;BME280;67643;-34.198;22.084;2023-02-28T04:06:50;100294.16;;;23.82;52.13
63708;BME280;67643;-34.198;22.084;2023-02-28T04:09:19;100295.92;;;24.11;52.06
63708;BME280;67643;-34.198;22.084;2023-02-28T04:11:51;100301.23;;;24.17;51.90
63708;BME280;67643;-34.198;22.084;2023-02-28T04:14:20;100306.75;;;23.63;52.40
63708;BME280;67643;-34.198;22.084;2023-02-28T04:16:48;100311.18;;;24.11;51.53
63708;BME280;67643;-34.198;22.084;2023-02-28T04:19:17;100309.61;;;23.14;53.47
63708;BME280;67643;-34.198;22.084;2023-02-28T04:21:48;100310.96;;;23.29;53.25
63708;BME280;67643;-34.198;22.084;2023-02-28T04:24:19;100311.58;;;23.32;53.44
63708;BME280;67643;-34.198;22.084;2023-02-28T04:26:49;100314.20;;;23.65;52.66
63708;BME280;67643;-34.198;22.084;2023-02-28T04:29:24;100313.76;;;23.12;53.99
63708;BME280;67643;-34.198;22.084;2023-02-28T04:31:54;100318.93;;;23.28;53.45
63708;BME280;67643;-34.198;22.084;2023-02-28T04:34:23;100314.15;;;23.74;53.41
63708;BME280;67643;-34.198;22.084;2023-02-28T04:36:55;100314.76;;;23.34;53.35
63708;BME280;67643;-34.198;22.084;2023-02-28T04:39:25;100316.71;;;23.75;52.54
63708;BME280;67643;-34.198;22.084;2023-02-28T04:41:53;100319.04;;;24.30;52.66
63708;BME280;67643;-34.198;22.084;2023-02-28T04:44:22;100318.96;;;23.86;53.59
63708;BME280;67643;-34.198;22.084;2023-02-28T04:46:50;100315.61;;;23.64;53.71
63708;BME280;67643;-34.198;22.084;2023-02-28T04:49:19;100317.03;;;23.82;53.77
63708;BME280;67643;-34.198;22.084;2023-02-28T04:51:48;100315.04;;;23.86;53.59
63708;BME280;67643;-34.198;22.084;2023-02-28T04:54:17;100311.27;;;23.24;54.43
63708;BME280;67643;-34.198;22.084;2023-02-28T04:56:45;100310.30;;;23.26;54.37
63708;BME280;67643;-34.198;22.084;2023-02-28T04:59:13;100308.71;;;23.60;54.94
63708;BME280;67643;-34.198;22.084;2023-02-28T05:01:46;100308.54;;;23.56;53.73
63708;BME280;67643;-34.198;22.084;2023-02-28T05:04:16;100307.85;;;23.56;54.21
63708;BME280;67643;-34.198;22.084;2023-02-28T05:06:44;100305.54;;;23.56;54.06
63708;BME280;67643;-34.198;22.084;2023-02-28T05:09:12;100307.00;;;23.89;53.78
63708;BME280;67643;-34.198;22.084;2023-02-28T05:11:41;100305.96;;;24.07;53.54
63708;BME280;67643;-34.198;22.084;2023-02-28T05:14:12;100304.45;;;23.92;53.58
63708;BME280;67643;-34.198;22.084;2023-02-28T05:16:41;100300.68;;;24.02;53.22
63708;BME280;67643;-34.198;22.084;2023-02-28T05:19:09;100294.59;;;23.97;53.12
63708;BME280;67643;-34.198;22.084;2023-02-28T05:21:39;100292.75;;;23.67;53.58
63708;BME280;67643;-34.198;22.084;2023-02-28T05:24:10;100294.65;;;23.56;53.78
63708;BME280;67643;-34.198;22.084;2023-02-28T05:26:41;100295.88;;;24.05;52.67
63708;BME280;67643;-34.198;22.084;2023-02-28T05:29:10;100298.76;;;23.85;53.06
63708;BME280;67643;-34.198;22.084;2023-02-28T05:31:39;100302.59;;;24.06;52.71
63708;BME280;67643;-34.198;22.084;2023-02-28T05:34:07;100306.91;;;24.01;52.65
63708;BME280;67643;-34.198;22.084;2023-02-28T05:36:37;100305.27;;;23.57;53.03
63708;BME280;67643;-34.198;22.084;2023-02-28T05:39:06;100301.67;;;24.25;52.20
63708;BME280;67643;-34.198;22.084;2023-02-28T05:41:35;100294.64;;;23.67;52.77
63708;BME280;67643;-34.198;22.084;2023-02-28T05:44:05;100288.08;;;23.84;52.90
63708;BME280;67643;-34.198;22.084;2023-02-28T05:46:33;100283.16;;;23.53;53.44
63708;BME280;67643;-34.198;22.084;2023-02-28T05:49:03;100282.13;;;23.48;53.10
63708;BME280;67643;-34.198;22.084;2023-02-28T05:51:31;100284.44;;;23.55;52.97
63708;BME280;67643;-34.198;22.084;2023-02-28T05:54:01;100287.96;;;23.97;52.61
63708;BME280;67643;-34.198;22.084;2023-02-28T05:56:29;100285.52;;;23.55;53.36
63708;BME280;67643;-34.198;22.084;2023-02-28T05:58:58;100286.43;;;23.85;52.97
63708;BME280;67643;-34.198;22.084;2023-02-28T06:01:33;100287.15;;;23.92;52.84
63708;BME280;67643;-34.198;22.084;2023-02-28T06:04:03;100289.90;;;23.87;52.87
63708;BME280;67643;-34.198;22.084;2023-02-28T08:06:17;100299.54;;;20.37;70.85
63708;BME280;67643;-34.198;22.084;2023-02-28T08:08:45;100294.67;;;21.71;65.13
63708;BME280;67643;-34.198;22.084;2023-02-28T08:11:15;100293.69;;;22.28;62.28
63708;BME280;67643;-34.198;22.084;2023-02-28T08:13:43;100292.51;;;22.59;60.84
63708;BME280;67643;-34.198;22.084;2023-02-28T08:16:13;100295.15;;;22.98;59.69
63708;BME280;67643;-34.198;22.084;2023-02-28T08:18:42;100297.49;;;22.96;59.53
63708;BME280;67643;-34.198;22.084;2023-02-28T08:21:10;100302.56;;;23.10;59.36
63708;BME280;67643;-34.198;22.084;2023-02-28T08:23:39;100297.02;;;22.77;58.85
63708;BME280;67643;-34.198;22.084;2023-02-28T08:26:07;100297.96;;;23.18;58.73
63708;BME280;67643;-34.198;22.084;2023-02-28T08:28:35;100297.81;;;23.40;58.23
63708;BME280;67643;-34.198;22.084;2023-02-28T08:31:08;100296.71;;;23.42;58.30
63708;BME280;67643;-34.198;22.084;2023-02-28T08:33:38;100298.74;;;23.22;58.41
63708;BME280;67643;-34.198;22.084;2023-02-28T08:36:08;100301.65;;;23.29;57.76
63708;BME280;67643;-34.198;22.084;2023-02-28T08:38:37;100299.80;;;23.27;57.61
63708;BME280;67643;-34.198;22.084;2023-02-28T08:41:09;100296.09;;;23.25;57.76
63708;BME280;67643;-34.198;22.084;2023-02-28T08:43:38;100293.41;;;22.70;59.29
63708;BME280;67643;-34.198;22.084;2023-02-28T08:46:08;100299.75;;;23.38;58.03
63708;BME280;67643;-34.198;22.084;2023-02-28T08:48:39;100301.68;;;23.20;57.71
63708;BME280;67643;-34.198;22.084;2023-02-28T08:51:10;100300.55;;;23.39;57.23
63708;BME280;67643;-34.198;22.084;2023-02-28T08:53:40;100297.43;;;22.87;58.10
63708;BME280;67643;-34.198;22.084;2023-02-28T08:56:11;100301.46;;;23.66;56.93
63708;BME280;67643;-34.198;22.084;2023-02-28T08:58:40;100301.08;;;23.66;56.69
63708;BME280;67643;-34.198;22.084;2023-02-28T09:01:10;100301.52;;;23.51;56.95
63708;BME280;67643;-34.198;22.084;2023-02-28T09:03:40;100296.75;;;23.36;57.00
63708;BME280;67643;-34.198;22.084;2023-02-28T09:06:10;100293.70;;;23.03;57.73
63708;BME280;67643;-34.198;22.084;2023-02-28T09:08:39;100295.24;;;24.06;56.72
63708;BME280;67643;-34.198;22.084;2023-02-28T09:11:09;100293.70;;;23.29;56.70
63708;BME280;67643;-34.198;22.084;2023-02-28T09:13:37;100294.69;;;23.58;56.61
63708;BME280;67643;-34.198;22.084;2023-02-28T09:16:08;100293.42;;;23.58;56.63
63708;BME280;67643;-34.198;22.084;2023-02-28T09:18:39;100295.94;;;23.57;56.86
63708;BME280;67643;-34.198;22.084;2023-02-28T09:21:09;100296.66;;;23.87;56.86
63708;BME280;67643;-34.198;22.084;2023-02-28T09:23:37;100293.56;;;23.53;57.14
63708;BME280;67643;-34.198;22.084;2023-02-28T09:26:07;100291.95;;;23.65;57.18
63708;BME280;67643;-34.198;22.084;2023-02-28T09:28:35;100286.65;;;23.19;58.03
63708;BME280;67643;-34.198;22.084;2023-02-28T09:31:04;100282.05;;;23.61;57.27
63708;BME280;67643;-34.198;22.084;2023-02-28T09:33:32;100276.83;;;23.92;56.38
63708;BME280;67643;-34.198;22.084;2023-02-28T09:36:02;100273.48;;;24.13;56.42
63708;BME280;67643;-34.198;22.084;2023-02-28T09:38:30;100274.07;;;23.65;56.46
63708;BME280;67643;-34.198;22.084;2023-02-28T09:41:01;100271.61;;;23.61;57.14
63708;BME280;67643;-34.198;22.084;2023-02-28T09:43:34;100272.85;;;22.57;58.96
63708;BME280;67643;-34.198;22.084;2023-02-28T09:46:11;100266.12;;;22.64;59.14
63708;BME280;67643;-34.198;22.084;2023-02-28T09:48:45;100268.08;;;23.27;57.64
63708;BME280;67643;-34.198;22.084;2023-02-28T09:51:28;100268.28;;;23.79;56.99
63708;BME280;67643;-34.198;22.084;2023-02-28T09:53:58;100268.22;;;23.74;57.17
63708;BME280;67643;-34.198;22.084;2023-02-28T09:56:30;100261.84;;;22.48;59.44
63708;BME280;67643;-34.198;22.084;2023-02-28T09:59:02;100261.40;;;23.55;57.84
63708;BME280;67643;-34.198;22.084;2023-02-28T10:01:38;100255.82;;;23.49;57.86
63708;BME280;67643;-34.198;22.084;2023-02-28T10:04:16;100248.29;;;23.44;58.05
63708;BME280;67643;-34.198;22.084;2023-02-28T10:06:49;100247.10;;;23.71;57.52
63708;BME280;67643;-34.198;22.084;2023-02-28T10:09:22;100246.66;;;23.68;57.37
63708;BME280;67643;-34.198;22.084;2023-02-28T10:11:54;100243.12;;;24.19;56.55
63708;BME280;67643;-34.198;22.084;2023-02-28T10:14:26;100243.29;;;23.89;56.79
63708;BME280;67643;-34.198;22.084;2023-02-28T10:17:00;100238.15;;;23.86;56.79
63708;BME280;67643;-34.198;22.084;2023-02-28T10:19:34;100232.92;;;22.28;59.64
63708;BME280;67643;-34.198;22.084;2023-02-28T10:22:13;100230.51;;;24.10;56.35
63708;BME280;67643;-34.198;22.084;2023-02-28T10:24:44;100228.81;;;23.85;56.20
63708;BME280;67643;-34.198;22.084;2023-02-28T10:27:16;100225.66;;;24.31;55.99
63708;BME280;67643;-34.198;22.084;2023-02-28T10:29:47;100228.75;;;24.66;55.47
63708;BME280;67643;-34.198;22.084;2023-02-28T10:32:18;100230.60;;;23.81;56.35
63708;BME280;67643;-34.198;22.084;2023-02-28T10:34:52;100230.43;;;24.29;55.06
63708;BME280;67643;-34.198;22.084;2023-02-28T10:37:23;100230.73;;;24.74;54.96
63708;BME280;67643;-34.198;22.084;2023-02-28T10:39:52;100230.96;;;24.47;54.54
63708;BME280;67643;-34.198;22.084;2023-02-28T10:42:24;100225.45;;;24.67;53.79
63708;BME280;67643;-34.198;22.084;2023-02-28T10:45:13;100220.82;;;24.94;53.90
63708;BME280;67643;-34.198;22.084;2023-02-28T10:47:54;100219.01;;;24.74;53.75
63708;BME280;67643;-34.198;22.084;2023-02-28T10:50:37;100212.95;;;24.78;54.73
63708;BME280;67643;-34.198;22.084;2023-02-28T10:53:21;100209.97;;;24.72;53.92
63708;BME280;67643;-34.198;22.084;2023-02-28T10:55:58;100206.66;;;24.06;55.37
63708;BME280;67643;-34.198;22.084;2023-02-28T10:58:29;100202.95;;;24.78;53.46
63708;BME280;67643;-34.198;22.084;2023-02-28T11:00:59;100203.60;;;24.51;53.80
63708;BME280;67643;-34.198;22.084;2023-02-28T11:03:33;100203.56;;;24.85;53.98
63708;BME280;67643;-34.198;22.084;2023-02-28T11:06:07;100200.58;;;24.96;53.74
63708;BME280;67643;-34.198;22.084;2023-02-28T11:08:45;100194.29;;;24.66;53.72
63708;BME280;67643;-34.198;22.084;2023-02-28T11:11:14;100189.73;;;23.75;54.73
63708;BME280;67643;-34.198;22.084;2023-02-28T11:13:45;100189.47;;;24.27;54.64
63708;BME280;67643;-34.198;22.084;2023-02-28T11:16:15;100180.16;;;24.73;53.92
63708;BME280;67643;-34.198;22.084;2023-02-28T11:18:47;100174.49;;;23.96;55.64
63708;BME280;67643;-34.198;22.084;2023-02-28T11:21:21;100176.98;;;24.49;53.60
63708;BME280;67643;-34.198;22.084;2023-02-28T11:23:52;100175.50;;;25.02;52.50
63708;BME280;67643;-34.198;22.084;2023-02-28T11:26:40;100178.66;;;24.30;54.99
63708;BME280;67643;-34.198;22.084;2023-02-28T11:29:19;100175.73;;;23.94;55.01
63708;BME280;67643;-34.198;22.084;2023-02-28T11:32:11;100175.70;;;24.78;53.83
63708;BME280;67643;-34.198;22.084;2023-02-28T11:34:41;100176.25;;;24.70;53.68
63708;BME280;67643;-34.198;22.084;2023-02-28T11:37:13;100172.26;;;24.89;54.09
63708;BME280;67643;-34.198;22.084;2023-02-28T11:39:44;100176.07;;;24.48;54.02
63708;BME280;67643;-34.198;22.084;2023-02-28T11:42:26;100174.20;;;24.28;54.51
63708;BME280;67643;-34.198;22.084;2023-02-28T11:45:08;100179.10;;;24.77;54.28
63708;BME280;67643;-34.198;22.084;2023-02-28T11:47:46;100182.89;;;25.13;53.50
63708;BME280;67643;-34.198;22.084;2023-02-28T11:50:25;100185.76;;;24.64;53.52
63708;BME280;67643;-34.198;22.084;2023-02-28T11:52:59;100183.64;;;24.08;53.88
63708;BME280;67643;-34.198;22.084;2023-02-28T11:55:33;100177.21;;;24.79;53.56
63708;BME280;67643;-34.198;22.084;2023-02-28T11:58:20;100178.87;;;23.98;54.19
63708;BME280;67643;-34.198;22.084;2023-02-28T12:01:17;100176.00;;;24.15;54.17
63708;BME280;67643;-34.198;22.084;2023-02-28T12:03:58;100180.48;;;25.06;52.39
63708;BME280;67643;-34.198;22.084;2023-02-28T12:06:34;100175.84;;;23.89;54.04
63708;BME280;67643;-34.198;22.084;2023-02-28T12:09:20;100174.39;;;25.01;51.73
63708;BME280;67643;-34.198;22.084;2023-02-28T12:11:55;100170.55;;;24.68;52.33
63708;BME280;67643;-34.198;22.084;2023-02-28T12:14:42;100164.73;;;24.61;52.16
63708;BME280;67643;-34.198;22.084;2023-02-28T12:17:24;100163.47;;;24.47;52.77
63708;BME280;67643;-34.198;22.084;2023-02-28T12:20:02;100158.75;;;24.27;52.92
63708;BME280;67643;-34.198;22.084;2023-02-28T12:22:38;100153.63;;;24.10;53.58
63708;BME280;67643;-34.198;22.084;2023-02-28T12:25:44;100146.67;;;25.10;51.89
63708;BME280;67643;-34.198;22.084;2023-02-28T12:28:17;100140.90;;;22.54;56.39
63708;BME280;67643;-34.198;22.084;2023-02-28T12:30:53;100140.40;;;23.83;54.17
63708;BME280;67643;-34.198;22.084;2023-02-28T12:33:26;100132.71;;;24.24;53.50
63708;BME280;67643;-34.198;22.084;2023-02-28T12:35:58;100128.29;;;24.69;52.34
63708;BME280;67643;-34.198;22.084;2023-02-28T12:38:31;100133.92;;;25.56;50.74
63708;BME280;67643;-34.198;22.084;2023-02-28T12:41:04;100128.29;;;24.03;52.78
63708;BME280;67643;-34.198;22.084;2023-02-28T12:43:36;100130.81;;;24.75;52.58
63708;BME280;67643;-34.198;22.084;2023-02-28T12:46:09;100128.05;;;23.98;53.15
63708;BME280;67643;-34.198;22.084;2023-02-28T12:48:42;100129.69;;;23.90;52.95
63708;BME280;67643;-34.198;22.084;2023-02-28T12:51:13;100125.72;;;24.16;52.16
63708;BME280;67643;-34.198;22.084;2023-02-28T12:53:54;100122.96;;;25.10;50.76
63708;BME280;67643;-34.198;22.084;2023-02-28T12:56:35;100118.26;;;24.91;51.14
63708;BME280;67643;-34.198;22.084;2023-02-28T12:59:14;100114.92;;;24.72;51.49
63708;BME280;67643;-34.198;22.084;2023-02-28T13:01:56;100113.31;;;24.72;51.89
63708;BME280;67643;-34.198;22.084;2023-02-28T13:04:39;100103.79;;;24.93;50.98
63708;BME280;67643;-34.198;22.084;2023-02-28T13:07:28;100102.77;;;25.19;51.49
63708;BME280;67643;-34.198;22.084;2023-02-28T13:10:05;100102.53;;;25.11;50.68
63708;BME280;67643;-34.198;22.084;2023-02-28T13:12:35;100097.25;;;25.16;50.68
63708;BME280;67643;-34.198;22.084;2023-02-28T13:15:08;100099.63;;;24.98;50.93
63708;BME280;67643;-34.198;22.084;2023-02-28T13:17:37;100101.74;;;25.30;50.17
63708;BME280;67643;-34.198;22.084;2023-02-28T13:20:17;100106.77;;;24.62;51.55
63708;BME280;67643;-34.198;22.084;2023-02-28T13:22:49;100102.23;;;24.07;52.94
63708;BME280;67643;-34.198;22.084;2023-02-28T13:25:52;100103.97;;;24.36;51.84
63708;BME280;67643;-34.198;22.084;2023-02-28T13:29:02;100109.36;;;24.84;51.95
63708;BME280;67643;-34.198;22.084;2023-02-28T13:31:32;100114.50;;;24.88;51.18
63708;BME280;67643;-34.198;22.084;2023-02-28T13:34:17;100122.91;;;25.39;50.75
63708;BME280;67643;-34.198;22.084;2023-02-28T13:36:45;100121.94;;;25.10;50.93
63708;BME280;67643;-34.198;22.084;2023-02-28T13:39:49;100124.47;;;25.19;51.20
63708;BME280;67643;-34.198;22.084;2023-02-28T13:42:34;100120.44;;;23.81;53.49
63708;BME280;67643;-34.198;22.084;2023-02-28T13:45:35;100124.95;;;24.34;53.37
63708;BME280;67643;-34.198;22.084;2023-02-28T13:48:04;100127.89;;;24.03;53.43
63708;BME280;67643;-34.198;22.084;2023-02-28T13:50:43;100122.97;;;23.87;54.41
63708;BME280;67643;-34.198;22.084;2023-02-28T13:53:33;100131.92;;;24.36;53.21
63708;BME280;67643;-34.198;22.084;2023-02-28T13:56:19;100127.68;;;24.54;52.70
63708;BME280;67643;-34.198;22.084;2023-02-28T13:58:55;100121.19;;;24.15;53.95
63708;BME280;67643;-34.198;22.084;2023-02-28T14:01:37;100120.70;;;24.64;53.21
63708;BME280;67643;-34.198;22.084;2023-02-28T16:40:42;100121.84;;;21.46;65.28
63708;BME280;67643;-34.198;22.084;2023-02-28T16:43:15;100124.66;;;23.00;59.74
63708;BME280;67643;-34.198;22.084;2023-02-28T16:45:46;100133.26;;;23.80;57.18
63708;BME280;67643;-34.198;22.084;2023-02-28T16:48:16;100132.84;;;24.43;55.12
63708;BME280;67643;-34.198;22.084;2023-02-28T16:50:44;100138.52;;;23.78;55.67
63708;BME280;67643;-34.198;22.084;2023-02-28T16:53:12;100140.54;;;24.77;53.17
63708;BME280;67643;-34.198;22.084;2023-02-28T16:55:41;100146.69;;;24.34;53.80
63708;BME280;67643;-34.198;22.084;2023-02-28T16:58:14;100151.66;;;25.09;52.38
63708;BME280;67643;-34.198;22.084;2023-02-28T17:00:43;100153.60;;;24.53;53.05
63708;BME280;67643;-34.198;22.084;2023-02-28T17:03:22;100153.41;;;25.10;52.68
63708;BME280;67643;-34.198;22.084;2023-02-28T17:05:50;100156.17;;;24.74;52.56
63708;BME280;67643;-34.198;22.084;2023-02-28T17:08:19;100165.73;;;24.34;53.28
63708;BME280;67643;-34.198;22.084;2023-02-28T17:10:48;100176.41;;;25.10;51.81
63708;BME280;67643;-34.198;22.084;2023-02-28T17:13:16;100182.85;;;24.48;52.88
63708;BME280;67643;-34.198;22.084;2023-02-28T17:15:46;100187.39;;;24.46;52.91
63708;BME280;67643;-34.198;22.084;2023-02-28T17:18:16;100191.56;;;24.41;52.91
63708;BME280;67643;-34.198;22.084;2023-02-28T17:20:46;100196.56;;;24.55;52.68
63708;BME280;67643;-34.198;22.084;2023-02-28T17:23:14;100198.88;;;24.66;52.29
63708;BME280;67643;-34.198;22.084;2023-02-28T17:25:44;100201.96;;;25.01;51.70
63708;BME280;67643;-34.198;22.084;2023-02-28T17:28:12;100204.55;;;24.61;52.46
63708;BME280;67643;-34.198;22.084;2023-02-28T17:30:40;100203.05;;;23.90;53.53
63708;BME280;67643;-34.198;22.084;2023-02-28T17:33:09;100204.91;;;25.20;51.53
63708;BME280;67643;-34.198;22.084;2023-02-28T17:35:37;100206.93;;;24.88;52.40
63708;BME280;67643;-34.198;22.084;2023-02-28T17:38:07;100208.22;;;24.57;52.45
63708;BME280;67643;-34.198;22.084;2023-02-28T17:40:42;100208.48;;;24.43;52.73